Time;durP1;ratioP1;P1;durP2;ratioP2;P2;SDS_P1;SDS_P2;PMS_P1;PMS_P2;Temp;Humidity;BMP_temperature;BMP_pressure;BME280_temperature;BME280_humidity;BME280_pressure;Samples;Min_cycle;Max_cycle;Signal;HPM_P1;HPM_P2
2023/01/11 00:00:06;;;;;;;9.10;5.75;;;;;;;7.90;64.33;99320.28;5132828;27;20113;-48
2023/01/11 00:02:33;;;;;;;10.55;5.38;;;;;;;7.86;64.32;99319.78;5131695;27;20016;-48
2023/01/11 00:04:59;;;;;;;8.10;5.50;;;;;;;7.80;64.34;99321.25;5132723;27;20028;-48
2023/01/11 00:07:25;;;;;;;10.88;5.60;;;;;;;7.77;64.20;99316.38;5132774;27;20011;-47
2023/01/11 00:09:50;;;;;;;7.40;5.05;;;;;;;7.73;64.57;99320.31;5131442;28;20063;-47
2023/01/11 00:12:16;;;;;;;12.10;5.15;;;;;;;7.70;64.57;99309.38;5132721;28;20023;-47
2023/01/11 00:14:42;;;;;;;9.40;4.63;;;;;;;7.69;64.79;99316.41;5132722;27;20030;-48
2023/01/11 00:17:07;;;;;;;9.52;5.28;;;;;;;7.65;65.22;99315.09;5134042;27;20031;-47
2023/01/11 00:19:33;;;;;;;8.80;5.20;;;;;;;7.60;65.53;99317.38;5137046;27;20136;-48
2023/01/11 00:21:59;;;;;;;14.55;5.03;;;;;;;7.57;65.73;99321.16;5136658;27;20047;-47
2023/01/11 00:24:24;;;;;;;8.77;5.03;;;;;;;7.57;65.95;99323.75;5135549;27;20561;-47
2023/01/11 00:26:50;;;;;;;10.02;5.07;;;;;;;7.58;65.66;99319.34;5136840;27;20526;-48
2023/01/11 00:29:16;;;;;;;8.98;4.75;;;;;;;7.63;65.56;99318.88;5135619;27;20504;-47
2023/01/11 00:31:41;;;;;;;8.82;4.65;;;;;;;7.63;65.48;99314.44;5136697;27;20031;-47
2023/01/11 00:34:07;;;;;;;9.15;4.40;;;;;;;7.62;65.68;99312.81;5136665;27;20023;-47
2023/01/11 00:36:33;;;;;;;8.25;4.15;;;;;;;7.65;65.39;99314.28;5136610;27;20054;-48
2023/01/11 00:39:00;;;;;;;9.90;4.68;;;;;;;7.63;65.81;99319.66;5136581;27;20442;-47
2023/01/11 00:50:00;;;;;;;8.40;4.35;;;;;;;7.64;65.27;99305.63;5072847;28;20115;-48
2023/01/11 00:52:26;;;;;;;8.23;4.57;;;;;;;7.62;65.64;99301.53;5056103;28;20021;-48
2023/01/11 00:54:52;;;;;;;9.07;4.72;;;;;;;7.59;65.69;99298.28;5056043;28;20473;-48
2023/01/11 00:57:18;;;;;;;8.90;4.82;;;;;;;7.54;65.54;99297.16;5056026;28;20119;-47
2023/01/11 00:59:44;;;;;;;10.20;4.55;;;;;;;7.46;66.01;99289.31;5072757;28;20043;-47
2023/01/11 01:02:11;;;;;;;9.23;5.50;;;;;;;7.36;66.25;99281.66;5072666;28;20075;-47
2023/01/11 01:04:38;;;;;;;11.45;5.35;;;;;;;7.26;66.88;99279.22;5055708;28;20032;-47
2023/01/11 01:07:04;;;;;;;8.35;4.78;;;;;;;7.16;66.94;99270.72;5055808;28;20061;-47
2023/01/11 01:09:31;;;;;;;8.40;4.55;;;;;;;7.09;67.13;99269.78;5055730;28;20036;-47
2023/01/11 01:11:57;;;;;;;7.95;4.70;;;;;;;7.02;67.49;99259.16;5072476;28;20036;-48
2023/01/11 01:14:31;;;;;;;7.68;4.30;;;;;;;6.98;68.36;99261.28;5055647;28;20033;-47
2023/01/11 01:17:15;;;;;;;10.65;5.30;;;;;;;6.96;68.64;99244.97;5072469;28;20060;-47
2023/01/11 01:19:40;;;;;;;12.25;5.35;;;;;;;6.97;68.84;99251.81;5059389;27;20037;-47
2023/01/11 01:22:06;;;;;;;11.30;4.78;;;;;;;6.98;68.63;99245.63;5135604;27;20068;-47
2023/01/11 01:24:32;;;;;;;13.65;5.80;;;;;;;6.99;69.00;99241.22;5135642;27;20042;-47
2023/01/11 01:26:58;;;;;;;12.93;5.43;;;;;;;7.04;69.24;99249.38;5135135;27;20115;-47
2023/01/11 01:29:24;;;;;;;8.20;4.43;;;;;;;7.06;68.38;99249.22;5134379;27;20019;-47
2023/01/11 01:31:50;;;;;;;6.32;4.30;;;;;;;7.09;68.35;99241.88;5135590;27;20507;-47
2023/01/11 01:34:16;;;;;;;9.55;4.47;;;;;;;7.11;68.85;99234.69;5134249;27;20087;-47
2023/01/11 01:36:42;;;;;;;8.90;4.07;;;;;;;7.04;68.63;99236.31;5135480;27;20027;-47
2023/01/11 01:39:10;;;;;;;8.40;4.10;;;;;;;6.93;68.83;99239.28;5134100;27;20119;-47
2023/01/11 01:41:35;;;;;;;9.00;5.13;;;;;;;6.83;68.94;99249.06;5134062;27;20446;-47
2023/01/11 01:44:05;;;;;;;9.80;5.78;;;;;;;6.66;68.37;99243.81;5168877;27;20023;-47
2023/01/11 01:46:32;;;;;;;7.60;4.85;;;;;;;6.50;68.81;99249.81;5134277;27;20492;-47
2023/01/11 01:49:05;;;;;;;8.68;5.30;;;;;;;6.38;70.33;99241.47;5135350;27;20019;-47
2023/01/11 01:51:37;;;;;;;13.02;5.68;;;;;;;6.33;71.60;99246.34;5135298;27;20510;-47
2023/01/11 01:54:07;;;;;;;7.63;4.65;;;;;;;6.32;71.21;99246.53;5134112;27;20488;-47
2023/01/11 01:56:57;;;;;;;9.60;4.97;;;;;;;6.23;71.21;99247.47;5135215;27;20031;-47
2023/01/11 01:59:27;;;;;;;10.82;4.63;;;;;;;6.15;71.48;99243.84;5116781;27;20030;-47
2023/01/11 02:01:53;;;;;;;10.50;4.82;;;;;;;6.11;72.43;99247.75;5135023;27;20591;-47
2023/01/11 02:04:24;;;;;;;10.63;4.93;;;;;;;6.10;72.17;99245.31;5135094;27;20023;-47
2023/01/11 02:06:55;;;;;;;10.73;5.43;;;;;;;6.00;71.99;99248.03;5133677;27;20382;-47
2023/01/11 02:09:28;;;;;;;9.02;4.85;;;;;;;5.84;72.39;99247.94;5134963;27;20026;-47
2023/01/11 02:11:56;;;;;;;10.70;4.72;;;;;;;5.69;72.89;99251.09;5134960;27;20031;-47
2023/01/11 02:14:22;;;;;;;6.78;4.60;;;;;;;5.57;72.72;99244.53;5134873;27;20015;-47
2023/01/11 02:16:48;;;;;;;8.27;5.20;;;;;;;5.47;73.62;99244.63;5133354;27;20553;-47
2023/01/11 02:19:29;;;;;;;9.13;4.47;;;;;;;5.40;73.63;99246.22;5133382;27;20024;-47
2023/01/11 02:22:25;;;;;;;12.63;5.00;;;;;;;5.40;73.99;99235.81;5133134;27;20043;-47
2023/01/11 02:25:29;;;;;;;10.80;4.93;;;;;;;5.45;74.33;99227.53;5133289;27;20034;-47
2023/01/11 02:28:00;;;;;;;9.98;5.38;;;;;;;5.47;75.18;99216.00;5120853;27;20031;-47
2023/01/11 02:30:37;;;;;;;10.52;5.15;;;;;;;5.53;74.86;99212.81;5134490;27;20063;-47
2023/01/11 02:33:35;;;;;;;10.27;5.90;;;;;;;5.62;75.79;99208.44;5134420;27;20023;-47
2023/01/11 02:36:35;;;;;;;8.93;5.03;;;;;;;5.69;75.42;99203.44;5134406;27;20064;-47
2023/01/11 02:39:03;;;;;;;6.97;4.07;;;;;;;5.72;75.20;99203.94;5133314;27;20023;-47
2023/01/11 02:47:29;;;;;;;9.60;4.38;;;;;;;5.82;74.31;99203.00;5134516;27;20034;-48
2023/01/11 02:50:08;;;;;;;9.98;3.97;;;;;;;5.74;74.57;99188.16;5134189;27;20023;-47
2023/01/11 02:52:40;;;;;;;5.50;3.45;;;;;;;5.78;74.28;99202.50;5115630;27;20050;-47
2023/01/11 02:55:09;;;;;;;7.32;3.47;;;;;;;5.78;74.59;99197.28;5132648;27;20034;-47
2023/01/11 02:57:38;;;;;;;6.90;4.18;;;;;;;5.82;74.41;99203.00;5132587;27;20025;-47
2023/01/11 03:00:05;;;;;;;7.50;3.97;;;;;;;5.89;73.95;99194.38;5133798;27;20027;-47
2023/01/11 03:02:31;;;;;;;6.60;4.00;;;;;;;6.05;73.56;99188.44;5132521;27;20102;-47
2023/01/11 03:04:56;;;;;;;7.28;4.20;;;;;;;6.08;72.85;99189.94;5133775;27;20106;-47
2023/01/11 03:07:43;;;;;;;5.57;3.90;;;;;;;6.08;72.67;99177.72;5133677;27;20026;-47
2023/01/11 03:10:23;;;;;;;6.82;3.05;;;;;;;6.14;72.88;99173.66;5133794;27;20055;-47
2023/01/11 03:13:07;;;;;;;6.68;4.03;;;;;;;6.17;72.17;99178.53;5133671;27;20033;-47
2023/01/11 03:16:20;;;;;;;8.18;4.40;;;;;;;6.07;71.83;99188.28;5133618;27;20033;-47
2023/01/11 03:18:54;;;;;;;6.63;3.67;;;;;;;5.94;72.75;99192.13;5053371;28;20101;-47
2023/01/11 03:21:38;;;;;;;6.75;3.28;;;;;;;5.85;73.03;99184.44;5069642;28;20047;-47
2023/01/11 03:24:29;;;;;;;7.50;4.15;;;;;;;5.74;73.52;99193.38;5053361;28;20100;-47
2023/01/11 03:27:23;;;;;;;10.00;3.65;;;;;;;5.65;73.58;99202.91;5069963;28;20033;-47
2023/01/11 03:30:03;;;;;;;11.88;4.07;;;;;;;5.60;74.47;99186.97;5069891;28;20040;-47
2023/01/11 03:32:45;;;;;;;9.00;4.00;;;;;;;5.65;74.08;99176.06;5053186;28;20115;-47
2023/01/11 03:35:30;;;;;;;8.77;4.40;;;;;;;5.74;73.87;99167.31;5053156;28;20494;-47
2023/01/11 03:38:35;;;;;;;6.50;4.30;;;;;;;5.80;73.60;99170.09;5053309;28;20121;-47
2023/01/11 03:41:07;;;;;;;6.72;3.50;;;;;;;5.82;73.59;99164.75;5069828;28;20025;-47
2023/01/11 03:43:36;;;;;;;11.88;4.03;;;;;;;5.80;74.06;99175.31;5069851;28;20029;-47
2023/01/11 03:46:11;;;;;;;7.03;4.72;;;;;;;5.74;73.97;99177.75;5069646;28;20064;-47
2023/01/11 03:48:54;;;;;;;6.95;4.45;;;;;;;5.66;73.82;99170.72;5053009;28;20025;-47
2023/01/11 03:51:26;;;;;;;9.30;3.75;;;;;;;5.55;74.21;99177.03;5052772;28;20506;-47
2023/01/11 03:53:56;;;;;;;6.45;4.03;;;;;;;5.50;73.96;99189.69;5133057;27;20027;-47
2023/01/11 03:56:28;;;;;;;7.28;4.40;;;;;;;5.42;74.42;99187.03;5131586;27;20027;-47
2023/01/11 03:58:54;;;;;;;6.63;3.90;;;;;;;5.37;75.13;99179.69;5131662;27;20066;-47
2023/01/11 04:01:20;;;;;;;6.50;3.72;;;;;;;5.34;75.25;99168.78;5131489;27;20054;-47
2023/01/11 04:03:46;;;;;;;6.05;3.72;;;;;;;5.39;75.48;99171.72;5132762;27;20038;-47
2023/01/11 04:06:12;;;;;;;8.02;4.30;;;;;;;5.46;75.40;99166.72;5132692;27;20016;-47
2023/01/11 04:08:37;;;;;;;6.15;3.80;;;;;;;5.57;74.92;99169.03;5131438;27;20030;-47
2023/01/11 04:11:04;;;;;;;7.95;4.20;;;;;;;5.67;75.03;99167.13;5131422;27;20027;-48
2023/01/11 04:13:31;;;;;;;7.88;4.55;;;;;;;5.84;74.97;99154.19;5131413;27;20023;-48
2023/01/11 04:15:56;;;;;;;7.47;4.30;;;;;;;6.04;74.45;99155.56;5132660;27;20139;-47
2023/01/11 04:18:22;;;;;;;7.05;4.15;;;;;;;6.17;73.90;99162.91;5132608;28;20102;-47
2023/01/11 04:20:48;;;;;;;5.10;3.45;;;;;;;6.26;72.71;99163.72;5131064;28;20051;-47
2023/01/11 04:23:14;;;;;;;6.78;3.22;;;;;;;6.32;72.63;99152.69;5132581;28;20027;-47
2023/01/11 04:25:39;;;;;;;12.13;4.57;;;;;;;6.32;72.24;99148.28;5132770;27;20104;-47
2023/01/11 04:28:05;;;;;;;10.27;4.90;;;;;;;6.20;71.44;99150.38;5132673;27;20488;-47
2023/01/11 04:30:31;;;;;;;6.93;3.80;;;;;;;6.11;72.24;99138.31;5131213;28;20091;-47
2023/01/11 04:32:58;;;;;;;7.22;3.78;;;;;;;6.16;72.92;99137.84;5132582;27;20102;-47
2023/01/11 04:35:24;;;;;;;9.00;5.20;;;;;;;6.26;71.95;99137.66;5132439;27;20020;-47
2023/01/11 04:37:55;;;;;;;8.50;4.57;;;;;;;6.33;71.68;99136.06;5132703;27;20121;-47
2023/01/11 04:40:21;;;;;;;7.40;3.90;;;;;;;6.24;70.90;99143.06;5131135;28;20442;-47
2023/01/11 04:42:46;;;;;;;7.22;3.88;;;;;;;6.15;71.75;99139.59;5131118;28;20023;-47
2023/01/11 04:45:12;;;;;;;7.97;4.00;;;;;;;6.12;71.42;99137.34;5132399;27;20477;-47
2023/01/11 04:47:38;;;;;;;6.90;4.03;;;;;;;6.10;71.82;99144.50;5132421;27;20472;-47
2023/01/11 04:50:04;;;;;;;6.10;3.78;;;;;;;6.09;71.37;99142.84;5132352;27;20019;-47
2023/01/11 04:52:30;;;;;;;4.35;2.90;;;;;;;6.05;71.80;99140.75;5131059;28;20092;-48
2023/01/11 04:54:56;;;;;;;6.68;2.92;;;;;;;6.06;72.27;99142.38;5132381;28;20026;-48
2023/01/11 04:57:22;;;;;;;7.60;3.60;;;;;;;6.05;72.04;99145.94;5130939;28;20031;-47
2023/01/11 04:59:47;;;;;;;9.20;3.17;;;;;;;6.07;71.69;99144.81;5132336;27;20027;-47
2023/01/11 05:02:14;;;;;;;4.93;3.10;;;;;;;6.13;71.18;99153.78;5133304;27;20020;-48
2023/01/11 05:04:40;;;;;;;9.95;2.83;;;;;;;6.15;71.84;99147.44;5135034;27;20117;-48
2023/01/11 05:07:07;;;;;;;8.45;3.25;;;;;;;6.19;71.17;99148.72;5136128;27;20568;-48
2023/01/11 05:09:32;;;;;;;9.32;3.08;;;;;;;6.21;71.13;99138.16;5136099;27;20019;-47
2023/01/11 05:11:58;;;;;;;7.63;2.75;;;;;;;6.20;70.70;99139.97;5135987;27;20037;-47
2023/01/11 05:14:24;;;;;;;5.60;3.33;;;;;;;6.20;70.19;99134.75;5136040;27;20114;-47
2023/01/11 05:16:49;;;;;;;8.07;3.83;;;;;;;6.20;70.71;99123.50;5135943;27;20473;-47
2023/01/11 05:19:15;;;;;;;6.15;3.80;;;;;;;6.16;70.86;99115.19;5134572;27;20019;-47
2023/01/11 05:21:41;;;;;;;9.25;4.22;;;;;;;6.09;71.18;99111.59;5135545;27;20394;-47
2023/01/11 05:24:10;;;;;;;5.28;3.45;;;;;;;6.09;71.73;99111.59;5135805;27;20415;-48
2023/01/11 05:26:39;;;;;;;5.82;3.58;;;;;;;6.14;71.68;99106.72;5135580;27;20088;-48
2023/01/11 05:29:10;;;;;;;6.38;3.38;;;;;;;6.23;71.63;99104.13;5135751;27;20030;-47
2023/01/11 05:31:37;;;;;;;7.07;3.35;;;;;;;6.33;71.59;99105.59;5134521;27;20027;-47
2023/01/11 05:34:05;;;;;;;6.43;3.25;;;;;;;6.48;70.84;99107.53;5134341;27;20019;-47
2023/01/11 05:36:32;;;;;;;4.60;3.33;;;;;;;6.57;70.86;99102.16;5135478;27;20031;-47
2023/01/11 05:38:57;;;;;;;8.48;3.25;;;;;;;6.60;70.40;99112.28;5135564;27;20046;-48
2023/01/11 05:41:25;;;;;;;5.00;2.75;;;;;;;6.58;69.92;99111.63;5168849;27;20023;-47
2023/01/11 05:46:37;;;;;;;5.18;2.75;;;;;;;6.51;70.79;99112.44;5135412;27;20030;-47
2023/01/11 05:49:04;;;;;;;4.80;2.88;;;;;;;6.45;70.73;99119.13;5135399;27;20050;-47
2023/01/11 05:51:31;;;;;;;5.57;3.20;;;;;;;6.42;71.22;99116.84;5135284;27;20015;-48
2023/01/11 05:53:58;;;;;;;12.77;3.72;;;;;;;6.46;70.79;99115.53;5135143;27;20083;-47
2023/01/11 05:56:24;;;;;;;5.07;2.90;;;;;;;6.50;70.87;99118.63;5135164;27;20427;-47
2023/01/11 05:58:51;;;;;;;5.25;3.00;;;;;;;6.55;70.69;99111.94;5133828;27;20023;-47
2023/01/11 06:01:18;;;;;;;5.95;2.78;;;;;;;6.59;70.82;99125.47;5135096;27;20064;-48
2023/01/11 06:03:44;;;;;;;6.85;2.65;;;;;;;6.65;70.24;99132.63;5133684;27;20031;-47
2023/01/11 06:06:11;;;;;;;6.72;2.72;;;;;;;6.72;70.43;99136.22;5135176;27;20401;-47
2023/01/11 06:08:37;;;;;;;3.88;2.50;;;;;;;6.73;70.59;99131.81;5134966;27;20050;-48
2023/01/11 06:11:02;;;;;;;6.28;3.00;;;;;;;6.72;70.00;99123.19;5168262;27;20027;-47
2023/01/11 06:13:28;;;;;;;5.38;3.10;;;;;;;6.74;69.86;99120.41;5133789;27;20023;-47
2023/01/11 06:15:59;;;;;;;5.80;3.65;;;;;;;6.74;69.54;99115.19;5134563;27;20027;-47
2023/01/11 06:18:25;;;;;;;9.18;3.38;;;;;;;6.72;69.80;99110.16;5133433;27;20031;-47
2023/01/11 06:20:53;;;;;;;5.00;2.80;;;;;;;6.70;69.51;99116.50;5134495;27;20031;-47
2023/01/11 06:23:19;;;;;;;7.32;2.95;;;;;;;6.69;70.13;99126.13;5133294;27;20079;-47
2023/01/11 06:25:45;;;;;;;6.57;2.80;;;;;;;6.69;69.64;99123.50;5134566;27;20023;-47
2023/01/11 06:28:11;;;;;;;6.32;3.83;;;;;;;6.79;69.73;99115.50;5134587;27;20016;-47
2023/01/11 06:30:37;;;;;;;6.03;3.50;;;;;;;6.91;69.39;99106.34;5134483;27;20058;-47
2023/01/11 06:33:06;;;;;;;7.18;3.75;;;;;;;6.93;69.01;99096.56;5134508;27;20051;-48
2023/01/11 06:35:40;;;;;;;6.05;2.80;;;;;;;6.88;69.10;99101.50;5134388;27;20204;-48
2023/01/11 06:38:08;;;;;;;6.05;3.28;;;;;;;6.87;69.37;99102.47;5133017;27;20023;-47
2023/01/11 06:40:35;;;;;;;5.72;3.47;;;;;;;6.83;69.04;99098.56;5134318;27;20060;-47
2023/01/11 06:43:01;;;;;;;9.88;3.60;;;;;;;6.87;69.10;99104.25;5134324;27;20019;-47
2023/01/11 06:45:27;;;;;;;6.30;3.05;;;;;;;6.88;69.10;99118.91;5132820;27;20019;-48
2023/01/11 06:47:53;;;;;;;8.52;3.38;;;;;;;6.90;69.15;99122.19;5134079;27;20030;-47
2023/01/11 06:50:19;;;;;;;4.80;3.45;;;;;;;6.94;68.99;99113.03;5134160;27;20488;-47
2023/01/11 06:53:00;;;;;;;6.43;3.22;;;;;;;6.95;68.79;99112.06;5132767;27;20504;-47
2023/01/11 06:55:27;;;;;;;4.93;3.08;;;;;;;7.00;69.11;99107.16;5134040;27;20035;-48
2023/01/11 06:57:53;;;;;;;6.05;3.75;;;;;;;7.01;68.52;99111.41;5132665;27;20086;-47
2023/01/11 07:00:20;;;;;;;6.60;3.65;;;;;;;6.97;68.71;99110.91;5132544;27;20033;-47
2023/01/11 07:02:47;;;;;;;9.40;4.63;;;;;;;6.99;68.65;99115.97;5133907;27;20027;-47
2023/01/11 07:05:13;;;;;;;6.20;3.70;;;;;;;6.97;69.30;99117.94;5133797;27;20031;-47
2023/01/11 07:07:39;;;;;;;6.88;4.10;;;;;;;6.95;68.99;99101.63;5133840;27;20019;-48
2023/01/11 07:10:07;;;;;;;6.70;3.55;;;;;;;6.89;68.78;99099.69;5149872;27;20055;-47
2023/01/11 07:12:35;;;;;;;8.18;3.88;;;;;;;6.84;69.15;99092.38;5133714;27;20023;-47
2023/01/11 07:15:01;;;;;;;6.63;3.88;;;;;;;6.79;69.39;99089.44;5133638;27;20035;-47
2023/01/11 07:17:27;;;;;;;7.45;3.63;;;;;;;6.69;69.12;99102.63;5132297;27;20450;-47
2023/01/11 07:19:52;;;;;;;6.35;3.28;;;;;;;6.64;69.72;99107.56;5133598;27;20019;-47
2023/01/11 07:22:21;;;;;;;6.80;3.30;;;;;;;6.66;69.75;99109.97;5133364;27;20591;-48
2023/01/11 07:24:47;;;;;;;5.70;3.50;;;;;;;6.66;69.01;99095.16;5133390;27;20423;-47
2023/01/11 07:27:13;;;;;;;6.68;3.13;;;;;;;6.64;69.38;99089.31;5133491;27;20023;-47
2023/01/11 07:29:39;;;;;;;12.05;3.40;;;;;;;6.54;69.89;99086.03;5132215;27;20025;-47
2023/01/11 07:32:05;;;;;;;5.90;3.53;;;;;;;6.50;69.44;99076.91;5166810;27;20023;-47
2023/01/11 07:34:31;;;;;;;7.60;3.22;;;;;;;6.47;69.99;99074.63;5133354;27;20019;-47
2023/01/11 07:36:57;;;;;;;15.93;3.20;;;;;;;6.50;69.68;99082.13;5133294;27;20035;-47
2023/01/11 07:39:22;;;;;;;12.07;3.33;;;;;;;6.58;69.58;99095.97;5133225;27;20046;-47
2023/01/11 07:44:32;;;;;;;19.35;3.63;;;;;;;6.91;68.62;99113.38;5133240;27;20160;-47
2023/01/11 07:46:57;;;;;;;37.05;4.75;;;;;;;7.00;68.55;99113.19;5166748;27;20524;-52
2023/01/11 07:49:23;;;;;;;15.40;3.80;;;;;;;7.13;67.94;99122.31;5133029;27;20011;-47
2023/01/11 07:51:50;;;;;;;53.58;7.80;;;;;;;7.19;68.07;99119.03;5133076;27;20019;-47
2023/01/11 07:54:17;;;;;;;34.63;6.43;;;;;;;7.20;67.88;99121.47;5133014;27;20034;-47
2023/01/11 07:56:42;;;;;;;22.02;4.88;;;;;;;7.23;68.64;99133.38;5132895;27;20023;-47
2023/01/11 07:59:08;;;;;;;25.80;5.40;;;;;;;7.33;68.07;99141.00;5132900;27;20026;-47
2023/01/11 08:01:34;;;;;;;40.72;4.68;;;;;;;7.39;67.99;99135.13;5132980;27;20092;-47
2023/01/11 08:04:00;;;;;;;41.55;4.75;;;;;;;7.47;67.74;99144.72;5133148;27;20019;-48
2023/01/11 08:06:25;;;;;;;61.83;7.68;;;;;;;7.54;67.08;99143.84;5132771;27;20023;-47
2023/01/11 08:08:51;;;;;;;46.97;7.05;;;;;;;7.60;66.96;99147.59;5132832;27;20553;-47
2023/01/11 08:16:44;;;;;;;36.83;6.35;;;;;;;7.78;67.06;99149.97;5132756;28;20573;-47
2023/01/11 08:19:10;;;;;;;83.82;9.40;;;;;;;7.86;66.98;99131.63;5132730;27;20023;-47
2023/01/11 08:21:35;;;;;;;49.05;8.43;;;;;;;7.93;65.83;99139.63;5132402;28;20066;-47
2023/01/11 08:24:01;;;;;;;13.07;3.15;;;;;;;7.90;66.34;99143.38;5132721;27;20015;-47
2023/01/11 08:26:27;;;;;;;35.75;6.80;;;;;;;7.97;66.38;99146.94;5132592;27;20110;-47
2023/01/11 08:28:53;;;;;;;33.38;6.00;;;;;;;8.19;65.85;99153.19;5132642;27;20396;-47
2023/01/11 08:31:19;;;;;;;57.45;7.28;;;;;;;8.46;66.18;99148.44;5132589;27;20473;-47
2023/01/11 08:33:45;;;;;;;191.75;29.25;;;;;;;8.69;65.84;99147.59;5132513;27;20030;-47
2023/01/11 08:36:12;;;;;;;135.35;15.70;;;;;;;8.83;64.86;99148.63;5131200;27;20027;-47
2023/01/11 08:38:38;;;;;;;90.32;10.98;;;;;;;8.86;64.56;99153.53;5135979;27;20035;-47
2023/01/11 08:41:09;;;;;;;57.78;11.32;;;;;;;8.88;64.19;99152.34;5136676;27;20042;-47
2023/01/11 08:43:40;;;;;;;71.43;8.07;;;;;;;8.91;63.65;99156.41;5136725;27;20072;-47
2023/01/11 08:46:06;;;;;;;83.00;11.05;;;;;;;8.84;63.52;99152.88;5135145;27;20404;-47
2023/01/11 08:48:31;;;;;;;98.63;11.50;;;;;;;8.76;63.25;99159.00;5136555;27;20023;-47
2023/01/11 08:50:57;;;;;;;84.88;9.48;;;;;;;8.72;63.27;99155.13;5136456;27;20535;-47
2023/01/11 08:53:23;;;;;;;46.25;7.03;;;;;;;8.74;63.22;99156.56;5136628;27;20446;-47
2023/01/11 08:55:50;;;;;;;58.78;8.38;;;;;;;8.78;62.79;99151.78;5136310;27;20110;-47
2023/01/11 08:58:16;;;;;;;52.15;7.63;;;;;;;8.80;62.57;99155.84;5136293;27;20549;-47
2023/01/11 09:00:41;;;;;;;37.70;7.53;;;;;;;8.78;62.71;99157.03;5169692;27;20027;-47
2023/01/11 09:03:10;;;;;;;48.90;7.25;;;;;;;8.83;62.68;99159.91;5136291;27;20718;-47
2023/01/11 09:05:37;;;;;;;20.58;5.18;;;;;;;8.87;62.40;99153.31;5136305;27;20505;-48
2023/01/11 09:08:03;;;;;;;46.97;6.57;;;;;;;8.82;62.11;99160.91;5152237;27;20023;-47
2023/01/11 09:10:29;;;;;;;16.65;4.70;;;;;;;8.82;62.36;99168.75;5136121;27;20047;-48
2023/01/11 09:12:56;;;;;;;49.42;6.85;;;;;;;8.82;62.44;99174.00;5134818;27;20020;-47
2023/01/11 09:15:23;;;;;;;34.47;6.57;;;;;;;8.89;62.53;99177.53;5135999;27;20488;-47
2023/01/11 09:17:49;;;;;;;31.77;6.50;;;;;;;8.92;62.25;99181.59;5135976;27;20453;-47
2023/01/11 09:20:16;;;;;;;34.78;5.75;;;;;;;8.93;61.95;99180.59;5134305;27;20580;-48
2023/01/11 09:22:48;;;;;;;36.53;7.65;;;;;;;9.01;62.19;99180.53;5136142;27;20044;-47
2023/01/11 09:25:14;;;;;;;61.17;9.23;;;;;;;9.11;62.35;99180.28;5134468;27;20358;-48
2023/01/11 09:27:44;;;;;;;69.95;8.82;;;;;;;9.23;61.98;99175.41;5134445;27;20496;-47
2023/01/11 09:30:12;;;;;;;78.13;9.15;;;;;;;9.25;63.34;99168.19;5135690;27;20026;-47
2023/01/11 09:32:37;;;;;;;34.25;6.80;;;;;;;9.15;64.99;99165.84;5135715;27;20400;-47
2023/01/11 09:35:05;;;;;;;70.18;9.35;;;;;;;9.13;66.66;99170.44;5135538;27;20019;-47
2023/01/11 09:37:31;;;;;;;57.95;7.75;;;;;;;9.14;67.86;99161.59;5135530;27;20050;-47
2023/01/11 09:39:58;;;;;;;49.65;7.93;;;;;;;9.02;68.81;99156.00;5135529;27;20038;-47
2023/01/11 09:42:39;;;;;;;119.47;16.02;;;;;;;8.65;70.17;99148.94;5135371;27;20106;-47
2023/01/11 09:45:13;;;;;;;109.35;14.63;;;;;;;8.42;71.23;99152.41;5134167;27;20061;-47
2023/01/11 09:47:46;;;;;;;113.28;16.30;;;;;;;8.31;72.15;99150.16;5135128;27;20047;-47
2023/01/11 09:50:24;;;;;;;82.88;9.75;;;;;;;8.28;72.62;99153.94;5135356;27;20030;-47
2023/01/11 09:52:55;;;;;;;77.63;10.35;;;;;;;8.31;72.84;99153.59;5135257;27;20035;-47
2023/01/11 09:55:30;;;;;;;94.10;12.70;;;;;;;8.42;72.71;99160.25;5133899;27;20488;-48
2023/01/11 09:58:10;;;;;;;56.55;8.57;;;;;;;8.61;74.07;99153.72;5133868;27;20023;-47
2023/01/11 10:00:43;;;;;;;66.85;9.82;;;;;;;8.87;73.93;99163.00;5133815;27;20062;-47
2023/01/11 10:03:12;;;;;;;111.70;15.88;;;;;;;9.15;74.32;99164.03;5133851;27;20126;-47
2023/01/11 10:05:45;;;;;;;66.30;10.65;;;;;;;9.36;73.31;99159.91;5134928;27;20019;-48
2023/01/11 10:08:29;;;;;;;78.45;10.82;;;;;;;9.47;72.44;99161.25;5135072;27;20019;-47
2023/01/11 10:11:18;;;;;;;113.68;15.85;;;;;;;9.53;72.46;99166.56;5135002;27;20054;-47
2023/01/11 10:13:45;;;;;;;230.85;26.38;;;;;;;9.56;71.65;99160.97;5134975;27;20049;-47
2023/01/11 10:16:29;;;;;;;123.57;16.52;;;;;;;9.62;72.80;99161.22;5135027;27;20504;-47
2023/01/11 10:19:05;;;;;;;81.90;12.25;;;;;;;9.74;73.41;99160.59;5134883;27;20109;-47
2023/01/11 10:21:33;;;;;;;;;;;;;;;9.86;75.11;99167.97;5133655;27;20498;-48
2023/01/11 10:24:48;;;;;;;36.47;7.80;;;;;;;9.89;75.29;99170.25;5133342;27;19942;-47
2023/01/11 10:27:24;;;;;;;67.65;10.00;;;;;;;9.93;75.34;99166.25;5122267;27;20067;-47
2023/01/11 10:30:31;;;;;;;82.05;12.55;;;;;;;9.94;74.90;99155.59;5134578;27;20019;-47
2023/01/11 10:33:49;;;;;;;29.05;6.05;;;;;;;9.93;75.26;99156.56;5134551;27;20026;-46
2023/01/11 10:42:14;;;;;;;70.65;11.00;;;;;;;9.87;76.91;99159.13;5112305;27;20512;-47
2023/01/11 10:45:18;;;;;;;44.47;6.85;;;;;;;9.82;77.39;99153.63;5134356;27;20114;-47
2023/01/11 10:48:10;;;;;;;55.35;8.73;;;;;;;9.72;78.43;99146.88;5120502;27;20038;-47
2023/01/11 10:50:59;;;;;;;40.47;7.40;;;;;;;9.64;78.63;99151.38;5134157;27;20110;-47
2023/01/11 10:53:31;;;;;;;45.08;7.00;;;;;;;9.55;79.09;99150.66;5134182;27;20030;-47
2023/01/11 10:56:06;;;;;;;38.78;6.68;;;;;;;9.49;79.92;99152.22;5134104;27;20037;-47
2023/01/11 10:58:36;;;;;;;58.97;9.00;;;;;;;9.40;80.15;99156.72;5134004;27;20510;-47
2023/01/11 11:01:27;;;;;;;25.02;6.38;;;;;;;9.32;80.83;99164.69;5133284;27;20102;-47
2023/01/11 11:04:01;;;;;;;30.42;6.50;;;;;;;9.23;80.73;99155.28;5133981;27;20493;-47
2023/01/11 11:06:33;;;;;;;55.50;8.47;;;;;;;9.14;81.13;99154.56;5132539;27;20163;-47
2023/01/11 11:09:18;;;;;;;39.10;7.03;;;;;;;9.10;81.22;99147.25;5132572;27;20423;-47
2023/01/11 11:11:53;;;;;;;62.10;9.40;;;;;;;9.03;81.52;99141.91;5132427;27;20023;-47
2023/01/11 11:14:32;;;;;;;15.65;4.25;;;;;;;8.96;82.06;99149.66;5133712;27;20062;-47
2023/01/11 11:17:09;;;;;;;44.25;8.00;;;;;;;8.94;83.34;99146.41;5133649;27;20027;-47
2023/01/11 11:19:34;;;;;;;19.88;4.10;;;;;;;8.96;84.28;99159.31;5132307;27;20028;-47
2023/01/11 11:22:00;;;;;;;28.48;5.75;;;;;;;8.91;85.25;99162.44;5133303;27;20050;-47
2023/01/11 11:24:34;;;;;;;24.63;6.38;;;;;;;8.91;86.30;99167.69;5166864;27;20023;-47
2023/01/11 11:27:06;;;;;;;20.88;5.45;;;;;;;8.93;87.53;99176.22;5132063;27;20030;-47
2023/01/11 11:29:40;;;;;;;37.20;6.07;;;;;;;8.98;88.91;99184.31;5132118;27;20072;-47
2023/01/11 11:32:22;;;;;;;100.47;12.15;;;;;;;9.05;89.66;99194.09;5133447;27;20034;-47
2023/01/11 11:34:49;;;;;;;28.65;5.57;;;;;;;9.05;90.40;99194.09;5132037;27;20407;-47
2023/01/11 11:37:34;;;;;;;32.22;6.15;;;;;;;8.95;90.51;99207.41;5132006;27;20488;-47
2023/01/11 11:40:01;;;;;;;18.60;4.97;;;;;;;8.85;90.96;99205.03;5132108;27;20027;-47
2023/01/11 11:42:27;;;;;;;12.93;4.35;;;;;;;8.77;91.73;99210.34;5133207;27;20538;-46
2023/01/11 11:45:10;;;;;;;11.60;3.92;;;;;;;8.65;92.23;99212.56;5133118;27;20019;-46
2023/01/11 11:47:37;;;;;;;16.45;5.00;;;;;;;8.63;93.26;99214.53;5133217;27;20027;-46
2023/01/11 11:50:29;;;;;;;15.07;4.55;;;;;;;8.64;93.97;99213.56;5131712;27;20019;-46
2023/01/11 11:53:03;;;;;;;26.42;6.03;;;;;;;8.62;94.50;99219.97;5130131;27;20043;-46
2023/01/11 11:55:32;;;;;;;15.73;4.75;;;;;;;8.61;95.36;99216.50;5133018;27;20028;-46
2023/01/11 11:58:07;;;;;;;16.90;4.68;;;;;;;8.50;95.14;99209.88;5133023;27;20081;-46
2023/01/11 12:00:46;;;;;;;18.98;5.30;;;;;;;8.39;95.83;99218.94;5131662;27;20148;-46
2023/01/11 12:03:20;;;;;;;14.05;4.60;;;;;;;8.32;96.34;99209.31;5132939;27;20400;-46
2023/01/11 12:06:01;;;;;;;11.63;5.20;;;;;;;8.26;96.72;99210.00;5131851;27;20476;-46
2023/01/11 12:08:33;;;;;;;15.02;4.60;;;;;;;8.20;97.16;99225.38;5131573;27;20035;-46
2023/01/11 12:11:04;;;;;;;10.35;4.10;;;;;;;8.07;97.29;99234.75;5132750;27;20446;-46
2023/01/11 12:13:33;;;;;;;10.00;4.70;;;;;;;7.92;97.45;99229.44;5132838;27;20054;-46
2023/01/11 12:16:19;;;;;;;11.57;4.72;;;;;;;7.86;98.06;99232.75;5131353;27;20682;-46
2023/01/11 12:18:44;;;;;;;15.68;4.55;;;;;;;7.87;98.23;99232.56;5132827;27;20031;-46
2023/01/11 12:21:19;;;;;;;8.88;4.50;;;;;;;7.90;99.36;99227.00;5131042;28;20378;-46
2023/01/11 12:23:46;;;;;;;12.10;4.88;;;;;;;7.79;98.82;99222.16;5131715;28;20015;-45